Time;durP1;ratioP1;P1;durP2;ratioP2;P2;SDS_P1;SDS_P2;PMS_P1;PMS_P2;Temp;Humidity;BMP_temperature;BMP_pressure;BME280_temperature;BME280_humidity;BME280_pressure;Samples;Min_cycle;Max_cycle;Signal;HPM_P1;HPM_P2
2021/01/11 00:00:57;;;;;;;24.55;5.93;;;3.00;99.90;;;;;;4838980;29;20063;-62
2021/01/11 00:03:23;;;;;;;16.17;3.95;;;3.10;99.90;;;;;;4838284;29;20593;-63
2021/01/11 00:05:49;;;;;;;23.83;4.82;;;3.10;99.90;;;;;;4838216;29;20033;-62
2021/01/11 00:08:15;;;;;;;17.23;3.75;;;3.00;99.90;;;;;;4838208;29;20034;-63
2021/01/11 00:10:41;;;;;;;20.30;4.30;;;3.10;99.90;;;;;;4823258;29;20041;-62
2021/01/11 00:13:06;;;;;;;21.42;4.97;;;3.20;99.90;;;;;;4838714;29;20037;-62
2021/01/11 00:15:32;;;;;;;21.95;4.30;;;3.20;99.90;;;;;;4839275;29;20065;-62
2021/01/11 00:17:58;;;;;;;18.98;3.70;;;3.20;99.90;;;;;;4838641;29;20033;-62
2021/01/11 00:20:24;;;;;;;25.42;4.68;;;3.20;99.90;;;;;;4839099;29;20030;-62
2021/01/11 00:22:50;;;;;;;26.88;4.57;;;3.20;99.90;;;;;;4836812;29;20121;-62
2021/01/11 00:25:15;;;;;;;15.95;4.68;;;3.30;99.90;;;;;;4839572;29;20637;-62
2021/01/11 00:27:42;;;;;;;32.80;5.53;;;3.40;99.90;;;;;;4839043;29;20080;-62
2021/01/11 00:30:09;;;;;;;17.17;3.08;;;3.40;99.90;;;;;;4821774;29;20651;-62
2021/01/11 00:32:36;;;;;;;19.27;3.40;;;3.40;99.90;;;;;;4837815;29;20509;-62
2021/01/11 00:35:03;;;;;;;17.77;4.25;;;3.40;99.90;;;;;;4837824;29;20113;-62
2021/01/11 00:37:29;;;;;;;13.02;2.90;;;3.40;99.90;;;;;;4838639;29;20038;-62
2021/01/11 00:39:55;;;;;;;15.32;3.55;;;3.50;99.90;;;;;;4839215;29;20026;-62
2021/01/11 00:42:21;;;;;;;17.65;4.68;;;3.50;99.90;;;;;;4836974;29;20446;-62
2021/01/11 00:44:48;;;;;;;16.73;2.65;;;3.50;99.90;;;;;;4821198;29;20037;-62
2021/01/11 00:47:15;;;;;;;14.65;2.83;;;3.50;99.90;;;;;;4838291;29;20029;-63
2021/01/11 00:49:41;;;;;;;18.25;3.33;;;3.50;99.90;;;;;;4837811;29;20093;-62
2021/01/11 00:52:07;;;;;;;21.75;4.35;;;3.50;99.90;;;;;;4838306;29;20043;-62
2021/01/11 00:54:33;;;;;;;16.33;3.00;;;3.50;99.90;;;;;;4837449;29;20067;-62
2021/01/11 00:56:59;;;;;;;22.98;3.53;;;3.50;99.90;;;;;;4837457;29;20103;-62
2021/01/11 00:59:28;;;;;;;23.25;3.95;;;3.50;99.90;;;;;;4837915;29;20617;-62
2021/01/11 01:01:54;;;;;;;14.40;3.17;;;3.50;99.90;;;;;;4838524;29;20034;-62
2021/01/11 01:04:20;;;;;;;18.73;2.95;;;3.60;99.90;;;;;;4838168;29;20034;-62
2021/01/11 01:06:47;;;;;;;18.65;3.70;;;3.60;99.90;;;;;;4837096;29;20038;-62
2021/01/11 01:09:13;;;;;;;16.65;2.72;;;3.60;99.90;;;;;;4837678;29;20048;-62
2021/01/11 01:11:41;;;;;;;24.40;2.88;;;3.60;99.90;;;;;;4837019;29;20045;-62
2021/01/11 01:14:07;;;;;;;15.18;2.83;;;3.70;99.90;;;;;;4836519;29;20410;-62
2021/01/11 01:16:33;;;;;;;16.63;3.53;;;3.70;99.90;;;;;;4838349;29;20034;-62
2021/01/11 01:18:59;;;;;;;19.83;4.05;;;3.70;99.90;;;;;;4837793;29;20044;-62
2021/01/11 01:21:25;;;;;;;28.17;3.40;;;3.80;99.90;;;;;;4837974;29;20140;-62
2021/01/11 01:23:51;;;;;;;15.57;2.97;;;3.80;99.90;;;;;;4836516;29;20121;-62
2021/01/11 01:26:18;;;;;;;33.20;8.65;;;3.80;99.90;;;;;;4837469;29;20507;-62
2021/01/11 01:28:44;;;;;;;17.30;3.03;;;3.90;99.90;;;;;;4838439;29;20116;-62
2021/01/11 01:31:11;;;;;;;24.50;3.80;;;3.90;99.90;;;;;;4837335;29;20088;-62
2021/01/11 01:33:37;;;;;;;18.17;2.95;;;4.00;99.90;;;;;;4837202;29;20062;-62
2021/01/11 01:36:03;;;;;;;19.35;3.08;;;4.00;99.90;;;;;;4837767;29;20034;-62
2021/01/11 01:38:28;;;;;;;17.20;2.97;;;4.10;99.90;;;;;;4836584;29;20050;-62
2021/01/11 01:40:55;;;;;;;19.23;2.95;;;4.10;99.90;;;;;;4838021;29;20037;-62
2021/01/11 01:43:21;;;;;;;16.20;2.28;;;4.10;99.90;;;;;;4837011;29;20229;-62
2021/01/11 01:45:47;;;;;;;18.92;2.75;;;4.20;99.90;;;;;;4837466;29;20064;-62
2021/01/11 01:48:13;;;;;;;13.00;2.40;;;4.20;99.90;;;;;;4837239;29;20805;-62
2021/01/11 01:50:41;;;;;;;24.52;3.00;;;4.20;99.90;;;;;;4836923;29;20034;-62
2021/01/11 01:53:07;;;;;;;23.27;3.85;;;4.20;99.90;;;;;;4834489;29;20569;-62
2021/01/11 01:55:36;;;;;;;17.98;3.13;;;4.20;99.90;;;;;;4837667;29;20035;-62
2021/01/11 01:58:04;;;;;;;12.57;3.28;;;4.20;99.90;;;;;;4836625;29;20040;-62
2021/01/11 02:00:30;;;;;;;11.05;2.88;;;4.20;99.90;;;;;;4837928;29;20672;-62
2021/01/11 02:02:56;;;;;;;17.58;3.42;;;4.20;99.90;;;;;;4837014;29;20405;-62
2021/01/11 02:05:22;;;;;;;13.48;2.83;;;4.30;99.90;;;;;;4838022;29;20033;-62
2021/01/11 02:07:54;;;;;;;19.20;3.60;;;4.30;99.90;;;;;;4820872;29;20039;-62
2021/01/11 02:10:50;;;;;;;13.80;2.70;;;4.30;99.90;;;;;;4837014;29;20057;-62
2021/01/11 02:13:42;;;;;;;14.80;2.88;;;4.30;99.90;;;;;;4836715;29;20073;-62
2021/01/11 02:16:11;;;;;;;17.60;2.75;;;4.40;99.90;;;;;;4836728;29;20038;-62
2021/01/11 02:18:52;;;;;;;17.77;3.00;;;4.40;99.90;;;;;;4836796;29;20044;-62
2021/01/11 02:21:29;;;;;;;10.02;2.42;;;4.40;99.90;;;;;;4837542;29;20038;-62
2021/01/11 02:24:42;;;;;;;19.92;3.42;;;4.40;99.90;;;;;;4836536;29;20777;-62
2021/01/11 02:27:40;;;;;;;13.57;1.95;;;4.50;99.90;;;;;;4770385;29;20082;-62
2021/01/11 02:30:12;;;;;;;17.60;4.70;;;4.40;99.90;;;;;;4836572;29;20196;-62
2021/01/11 02:32:47;;;;;;;9.82;1.38;;;4.50;99.90;;;;;;4836450;29;20057;-62
2021/01/11 02:35:14;;;;;;;17.63;1.83;;;4.50;99.90;;;;;;4837852;29;20049;-62
2021/01/11 02:37:41;;;;;;;11.20;1.33;;;4.50;99.90;;;;;;4837558;29;20041;-62
2021/01/11 02:40:08;;;;;;;7.10;1.33;;;4.60;99.90;;;;;;4836031;29;20034;-62
2021/01/11 02:42:34;;;;;;;6.63;1.20;;;4.60;99.90;;;;;;4837670;29;20030;-62
2021/01/11 02:45:00;;;;;;;11.32;2.05;;;4.60;99.90;;;;;;4836936;29;20544;-62
2021/01/11 02:48:03;;;;;;;14.60;1.77;;;4.60;99.90;;;;;;4836670;29;20046;-62
2021/01/11 02:50:31;;;;;;;11.23;1.40;;;4.70;99.90;;;;;;4790658;29;20045;-62
2021/01/11 02:53:03;;;;;;;19.58;2.35;;;4.70;99.90;;;;;;4836767;29;20106;-62
2021/01/11 02:55:47;;;;;;;11.45;2.30;;;4.70;99.90;;;;;;4837027;29;20646;-63
2021/01/11 02:58:19;;;;;;;8.93;1.88;;;4.80;99.90;;;;;;4837697;29;20081;-63
2021/01/11 03:00:47;;;;;;;9.23;1.92;;;4.80;99.90;;;;;;4840833;29;20497;-63
2021/01/11 03:03:15;;;;;;;5.20;1.67;;;4.90;99.90;;;;;;4838827;29;20026;-63
2021/01/11 03:05:41;;;;;;;13.15;2.15;;;4.90;99.90;;;;;;4839730;29;20094;-62
2021/01/11 03:08:07;;;;;;;10.43;2.55;;;4.90;99.90;;;;;;4840392;29;20088;-63
2021/01/11 03:10:33;;;;;;;12.30;1.75;;;5.00;99.90;;;;;;4839423;29;20921;-62
2021/01/11 03:12:59;;;;;;;10.13;1.50;;;5.00;99.90;;;;;;4839395;29;20041;-62
2021/01/11 03:15:25;;;;;;;10.00;1.58;;;5.10;99.90;;;;;;4838860;29;20046;-62
2021/01/11 03:17:51;;;;;;;8.82;1.70;;;5.20;99.90;;;;;;4840495;29;20034;-63
2021/01/11 03:20:17;;;;;;;10.80;1.50;;;5.20;99.90;;;;;;4839503;29;20823;-62
2021/01/11 03:22:42;;;;;;;10.35;1.98;;;5.30;99.90;;;;;;4840179;29;20025;-62
2021/01/11 03:25:09;;;;;;;7.05;1.52;;;5.30;99.90;;;;;;4840253;29;20638;-62
2021/01/11 03:27:35;;;;;;;11.50;1.70;;;5.40;99.90;;;;;;4839664;29;20546;-62
2021/01/11 03:30:01;;;;;;;9.68;1.95;;;5.40;99.90;;;;;;4840142;29;20065;-62
2021/01/11 03:32:27;;;;;;;17.00;2.47;;;5.50;99.90;;;;;;4839854;29;20118;-62
2021/01/11 03:34:53;;;;;;;10.48;2.92;;;5.50;99.90;;;;;;4823739;29;20504;-62
2021/01/11 03:37:19;;;;;;;20.23;2.88;;;5.60;99.90;;;;;;4837838;29;20561;-62
2021/01/11 03:39:45;;;;;;;11.85;2.67;;;5.70;99.90;;;;;;4840124;29;20776;-62
2021/01/11 03:42:11;;;;;;;13.60;2.03;;;5.60;99.90;;;;;;4838775;29;20045;-62
2021/01/11 03:44:37;;;;;;;18.73;2.55;;;5.70;99.90;;;;;;4838506;29;20033;-62
2021/01/11 03:47:03;;;;;;;11.75;2.65;;;5.70;99.90;;;;;;4838961;29;20033;-62
2021/01/11 03:49:29;;;;;;;19.98;2.95;;;5.70;99.90;;;;;;4840299;29;20061;-62
2021/01/11 03:52:02;;;;;;;11.25;2.25;;;5.70;99.90;;;;;;4838448;29;20042;-62
2021/01/11 03:54:29;;;;;;;14.68;2.75;;;5.80;99.90;;;;;;4838054;29;20601;-62
2021/01/11 03:56:55;;;;;;;11.13;3.00;;;5.80;99.90;;;;;;4839362;29;20057;-62
2021/01/11 03:59:21;;;;;;;16.00;2.65;;;5.80;99.90;;;;;;4838725;29;20029;-62
2021/01/11 04:01:47;;;;;;;18.85;3.67;;;5.90;99.90;;;;;;4838347;29;20052;-62
2021/01/11 04:04:13;;;;;;;15.25;3.13;;;5.90;99.90;;;;;;4838339;29;20513;-62
2021/01/11 04:06:38;;;;;;;19.40;3.58;;;5.90;99.90;;;;;;4839251;29;20029;-62
2021/01/11 04:09:05;;;;;;;19.25;3.20;;;5.90;99.90;;;;;;4838209;29;20603;-62
2021/01/11 04:11:30;;;;;;;18.42;4.15;;;5.90;99.90;;;;;;4838766;29;20149;-62
2021/01/11 04:13:56;;;;;;;16.60;3.65;;;6.00;99.90;;;;;;4838937;29;20049;-62
2021/01/11 04:16:22;;;;;;;24.27;4.88;;;6.00;99.90;;;;;;4838711;29;20048;-62
2021/01/11 04:18:49;;;;;;;15.52;4.05;;;6.10;99.90;;;;;;4837691;29;20025;-62
2021/01/11 04:21:16;;;;;;;25.30;3.95;;;6.10;99.90;;;;;;4839822;29;20041;-62
2021/01/11 04:23:41;;;;;;;21.33;3.88;;;6.10;99.90;;;;;;4819835;29;20073;-62
2021/01/11 04:26:08;;;;;;;25.45;4.28;;;6.20;99.90;;;;;;4838758;29;20135;-62
2021/01/11 04:28:34;;;;;;;11.88;3.85;;;6.20;99.90;;;;;;4836900;29;20030;-62
2021/01/11 04:31:00;;;;;;;29.25;4.10;;;6.20;99.90;;;;;;4836774;29;20029;-62
2021/01/11 04:33:26;;;;;;;16.60;3.15;;;6.20;99.90;;;;;;4837020;29;20137;-62
2021/01/11 04:35:52;;;;;;;25.27;3.80;;;6.20;99.90;;;;;;4836043;29;20445;-62
2021/01/11 04:38:17;;;;;;;19.85;4.40;;;6.30;99.90;;;;;;4832717;29;20039;-62
2021/01/11 04:40:43;;;;;;;26.95;3.55;;;6.20;99.90;;;;;;4837323;29;20038;-62
2021/01/11 04:43:15;;;;;;;19.08;3.42;;;6.30;99.90;;;;;;4835172;29;20079;-62
2021/01/11 04:45:42;;;;;;;17.52;3.17;;;6.30;99.90;;;;;;4837835;29;20056;-62
2021/01/11 04:48:08;;;;;;;21.67;3.53;;;6.30;99.90;;;;;;4838000;29;20549;-62
2021/01/11 04:50:36;;;;;;;11.43;3.08;;;6.30;99.90;;;;;;4836187;29;20037;-62
2021/01/11 04:53:08;;;;;;;14.23;3.35;;;6.30;99.90;;;;;;4802311;29;20041;-62
2021/01/11 04:55:37;;;;;;;17.13;3.60;;;6.30;99.90;;;;;;4836113;29;20030;-62
2021/01/11 04:58:10;;;;;;;21.95;3.67;;;6.30;99.90;;;;;;4832909;29;20053;-62
2021/01/11 05:00:42;;;;;;;16.15;3.22;;;6.30;99.90;;;;;;4822388;29;20053;-62
2021/01/11 05:03:11;;;;;;;23.13;5.72;;;6.30;99.90;;;;;;4836014;29;20056;-62
2021/01/11 05:05:39;;;;;;;13.97;3.57;;;6.30;99.90;;;;;;4805795;29;20029;-61
2021/01/11 05:08:06;;;;;;;16.70;3.20;;;6.40;99.90;;;;;;4835701;29;20065;-72
2021/01/11 05:10:37;;;;;;;16.88;3.15;;;6.40;99.90;;;;;;4832968;29;21933;-72
2021/01/11 05:13:08;;;;;;;14.02;3.20;;;6.40;99.90;;;;;;4836988;29;20046;-72
2021/01/11 05:15:36;;;;;;;15.70;2.95;;;6.40;99.90;;;;;;4808466;29;20037;-72
2021/01/11 05:18:19;;;;;;;18.52;3.05;;;6.40;99.90;;;;;;4838428;29;20092;-72
2021/01/11 05:20:45;;;;;;;24.70;4.07;;;6.40;99.90;;;;;;4837578;29;20034;-72
2021/01/11 05:23:14;;;;;;;19.35;3.47;;;6.40;99.90;;;;;;4837009;29;20033;-72
2021/01/11 05:25:41;;;;;;;19.77;4.20;;;6.40;99.90;;;;;;4837762;29;20029;-72
2021/01/11 05:28:10;;;;;;;13.32;2.65;;;6.40;99.90;;;;;;4807015;29;20045;-72
2021/01/11 05:30:41;;;;;;;20.90;3.50;;;6.40;99.90;;;;;;4836856;29;20143;-72
2021/01/11 05:33:26;;;;;;;14.57;3.10;;;6.40;99.90;;;;;;4836851;29;20056;-72
2021/01/11 05:36:12;;;;;;;18.73;3.75;;;6.40;99.90;;;;;;4837664;29;20037;-71
2021/01/11 05:38:39;;;;;;;14.90;4.25;;;6.40;99.90;;;;;;4836026;29;20564;-71
2021/01/11 05:41:19;;;;;;;9.15;3.22;;;6.40;99.90;;;;;;4836968;29;20042;-72
2021/01/11 05:43:46;;;;;;;;;;;6.40;99.90;;;;;;4833360;29;20030;-73
2021/01/11 05:46:25;;;;;;;15.90;3.35;;;6.40;99.90;;;;;;4837176;29;19916;-72
2021/01/11 05:49:20;;;;;;;18.13;3.53;;;6.40;99.90;;;;;;4834759;29;20788;-71
2021/01/11 05:51:45;;;;;;;16.83;3.15;;;6.40;99.90;;;;;;4820387;29;20060;-71
2021/01/11 05:54:26;;;;;;;23.92;3.78;;;6.40;99.90;;;;;;4832322;29;20046;-72
2021/01/11 05:56:54;;;;;;;15.65;3.15;;;6.40;99.90;;;;;;4836996;29;20045;-72
2021/01/11 05:59:20;;;;;;;14.30;3.28;;;6.40;99.90;;;;;;4834316;29;20133;-71
2021/01/11 06:01:46;;;;;;;16.63;4.20;;;6.40;99.90;;;;;;4831936;29;20261;-71
2021/01/11 06:04:12;;;;;;;24.42;3.30;;;6.40;99.90;;;;;;4835846;29;20064;-72
2021/01/11 06:06:39;;;;;;;17.20;4.10;;;6.40;99.90;;;;;;4804022;29;20037;-71
2021/01/11 06:09:07;;;;;;;16.85;4.20;;;6.40;99.90;;;;;;4837376;29;20106;-72
2021/01/11 06:11:36;;;;;;;16.10;3.33;;;6.40;99.90;;;;;;4837113;29;20072;-71
2021/01/11 06:14:04;;;;;;;14.27;4.05;;;6.40;99.90;;;;;;4836385;29;20048;-72
2021/01/11 06:16:31;;;;;;;18.30;3.40;;;6.40;99.90;;;;;;4838303;29;20038;-71
2021/01/11 06:18:57;;;;;;;26.00;3.92;;;6.50;99.90;;;;;;4837779;29;20797;-71
2021/01/11 06:21:23;;;;;;;26.05;5.18;;;6.50;99.90;;;;;;4838902;29;20034;-72
2021/01/11 06:24:13;;;;;;;17.63;3.78;;;6.40;99.90;;;;;;4821671;29;20033;-72
2021/01/11 06:26:39;;;;;;;17.98;3.67;;;6.40;99.90;;;;;;4838258;29;20043;-72
2021/01/11 06:29:27;;;;;;;23.73;3.75;;;6.40;99.90;;;;;;4838096;29;20657;-72
2021/01/11 06:31:56;;;;;;;18.58;3.45;;;6.50;99.90;;;;;;4838250;29;20515;-72
2021/01/11 06:34:35;;;;;;;21.88;3.63;;;6.50;99.90;;;;;;4841278;29;20080;-72
2021/01/11 06:37:02;;;;;;;9.68;2.13;;;6.50;99.90;;;;;;4840064;29;20166;-72
2021/01/11 06:39:31;;;;;;;6.63;1.73;;;6.40;99.90;;;;;;4841525;29;20045;-72
2021/01/11 06:41:59;;;;;;;13.20;2.65;;;6.40;99.90;;;;;;4841275;29;20039;-72
2021/01/11 06:44:26;;;;;;;14.40;3.17;;;6.40;99.90;;;;;;4841730;29;20410;-72
2021/01/11 06:46:52;;;;;;;20.48;3.97;;;6.40;99.90;;;;;;4823677;29;20076;-72
2021/01/11 06:49:30;;;;;;;21.02;4.50;;;6.40;99.90;;;;;;4841549;29;20033;-72
2021/01/11 06:52:08;;;;;;;19.00;5.03;;;6.40;99.90;;;;;;4841803;29;20048;-72
2021/01/11 06:54:41;;;;;;;30.42;6.13;;;6.40;99.90;;;;;;4841797;29;20042;-71
2021/01/11 06:57:17;;;;;;;23.52;4.50;;;6.40;99.90;;;;;;4841677;29;20052;-71
2021/01/11 06:59:46;;;;;;;19.55;4.60;;;6.40;99.90;;;;;;4841277;29;20041;-72
2021/01/11 07:02:19;;;;;;;23.38;4.82;;;6.40;99.90;;;;;;4841032;29;20108;-71
2021/01/11 07:04:46;;;;;;;21.80;4.72;;;6.50;99.90;;;;;;4838044;29;20101;-72
2021/01/11 07:07:39;;;;;;;16.25;3.63;;;6.50;99.90;;;;;;4823060;29;20120;-71
2021/01/11 07:10:05;;;;;;;21.65;4.40;;;6.50;99.90;;;;;;4837928;29;20049;-72
2021/01/11 07:12:31;;;;;;;24.85;5.13;;;6.50;99.90;;;;;;4841025;29;20021;-71
2021/01/11 07:14:58;;;;;;;19.00;4.05;;;6.50;99.90;;;;;;4841139;29;20046;-71
2021/01/11 07:17:42;;;;;;;20.92;5.03;;;6.50;99.90;;;;;;4840982;29;20060;-72
2021/01/11 07:20:13;;;;;;;17.35;4.20;;;6.50;99.90;;;;;;4840957;29;20064;-72
2021/01/11 07:22:44;;;;;;;17.77;4.82;;;6.50;99.90;;;;;;4840243;29;20697;-72
2021/01/11 07:25:22;;;;;;;18.20;3.17;;;6.50;99.90;;;;;;4840882;29;20064;-72
2021/01/11 07:27:53;;;;;;;23.85;4.28;;;6.50;99.90;;;;;;4840864;29;20435;-72
2021/01/11 07:30:19;;;;;;;23.77;5.25;;;6.50;99.90;;;;;;4841516;29;20048;-73
2021/01/11 07:32:45;;;;;;;27.88;4.38;;;6.50;99.90;;;;;;4840613;29;20065;-72
2021/01/11 07:35:11;;;;;;;25.80;5.13;;;6.50;99.90;;;;;;4841080;29;20038;-72
2021/01/11 07:37:37;;;;;;;27.13;4.65;;;6.50;99.90;;;;;;4840733;29;20447;-72
2021/01/11 07:40:07;;;;;;;28.30;4.15;;;6.60;99.90;;;;;;4840006;29;20466;-71
2021/01/11 07:42:34;;;;;;;19.73;4.18;;;6.60;99.90;;;;;;4840265;29;20576;-72
2021/01/11 07:45:11;;;;;;;18.35;4.13;;;6.60;99.90;;;;;;4840285;29;20067;-72
2021/01/11 07:47:38;;;;;;;23.70;4.50;;;6.60;99.90;;;;;;4840891;29;20045;-71
2021/01/11 07:50:06;;;;;;;16.88;4.05;;;6.60;99.90;;;;;;4840174;29;20040;-72
2021/01/11 07:52:32;;;;;;;23.85;5.00;;;6.60;99.90;;;;;;4840245;29;20037;-72
2021/01/11 07:55:03;;;;;;;27.83;6.53;;;6.70;99.90;;;;;;4840764;29;20037;-72
2021/01/11 07:57:30;;;;;;;25.42;4.68;;;6.70;99.90;;;;;;4840022;29;20034;-72
2021/01/11 08:00:04;;;;;;;23.13;5.47;;;6.70;99.90;;;;;;4840034;29;20073;-71
2021/01/11 08:02:31;;;;;;;25.88;5.60;;;6.70;99.90;;;;;;4840368;29;20029;-72
2021/01/11 08:04:58;;;;;;;26.17;5.95;;;6.70;99.90;;;;;;4840621;29;20037;-72
2021/01/11 08:07:32;;;;;;;37.72;5.40;;;6.70;99.90;;;;;;4839435;29;20034;-71
2021/01/11 08:10:00;;;;;;;30.13;6.53;;;6.70;99.90;;;;;;4840720;29;20714;-72
2021/01/11 08:12:29;;;;;;;37.70;6.50;;;6.70;99.90;;;;;;4839868;29;20034;-72
2021/01/11 08:15:09;;;;;;;32.47;5.18;;;6.80;99.90;;;;;;4839436;29;20691;-71
2021/01/11 08:17:41;;;;;;;25.35;6.43;;;6.70;99.90;;;;;;4840680;29;20061;-72
2021/01/11 08:20:08;;;;;;;33.33;6.30;;;6.70;99.90;;;;;;4839891;29;20109;-71
2021/01/11 08:22:34;;;;;;;32.95;4.70;;;6.70;99.90;;;;;;4839957;29;20044;-72
2021/01/11 08:25:00;;;;;;;26.70;4.55;;;6.70;99.90;;;;;;4840256;29;20530;-72
2021/01/11 08:27:40;;;;;;;22.48;5.60;;;6.70;99.90;;;;;;4839786;29;20497;-72
2021/01/11 08:30:11;;;;;;;32.65;4.60;;;6.70;99.90;;;;;;4838846;29;20239;-71
2021/01/11 08:32:39;;;;;;;34.28;6.30;;;6.70;99.90;;;;;;4839974;29;20049;-72
2021/01/11 08:35:08;;;;;;;20.23;4.40;;;6.70;99.90;;;;;;4838950;29;20813;-72
2021/01/11 08:37:35;;;;;;;28.70;5.20;;;6.70;99.90;;;;;;4839965;29;20470;-71
2021/01/11 08:40:09;;;;;;;23.92;4.22;;;6.70;99.90;;;;;;4839189;29;20148;-72
2021/01/11 08:42:37;;;;;;;21.33;4.53;;;6.70;99.90;;;;;;4839455;29;20065;-71
2021/01/11 08:45:25;;;;;;;27.77;5.55;;;6.70;99.90;;;;;;4839182;29;20041;-71
2021/01/11 08:48:14;;;;;;;24.10;3.97;;;6.80;99.90;;;;;;4839798;29;20041;-72
2021/01/11 08:50:52;;;;;;;29.50;4.43;;;6.80;99.90;;;;;;4839328;29;20034;-72
2021/01/11 08:53:25;;;;;;;20.83;4.60;;;6.80;99.90;;;;;;4839279;29;20144;-72
2021/01/11 08:56:01;;;;;;;22.77;5.55;;;6.80;99.90;;;;;;4839998;29;20040;-72
2021/01/11 08:58:36;;;;;;;22.13;5.35;;;6.80;99.90;;;;;;4807158;29;20041;-72
2021/01/11 09:01:16;;;;;;;27.92;4.93;;;6.80;99.90;;;;;;4838477;29;20034;-72
2021/01/11 09:03:54;;;;;;;24.48;4.45;;;6.80;99.90;;;;;;4838868;29;20109;-72
2021/01/11 09:06:40;;;;;;;42.72;6.57;;;6.80;99.90;;;;;;4837362;29;20041;-72
2021/01/11 09:09:11;;;;;;;23.40;4.57;;;6.70;99.90;;;;;;4822343;29;20482;-72
2021/01/11 09:11:39;;;;;;;26.52;5.30;;;6.70;99.90;;;;;;4839183;29;20029;-72
2021/01/11 09:14:06;;;;;;;21.45;4.38;;;6.80;99.90;;;;;;4839054;29;20033;-71
2021/01/11 09:16:33;;;;;;;26.35;4.60;;;6.80;99.90;;;;;;4838720;29;20042;-72
2021/01/11 09:19:09;;;;;;;33.15;5.30;;;6.80;99.90;;;;;;4822005;29;20030;-71
2021/01/11 09:21:36;;;;;;;29.45;5.20;;;6.70;99.90;;;;;;4837864;29;20404;-71
2021/01/11 09:24:02;;;;;;;31.88;5.15;;;6.70;99.90;;;;;;4838383;29;20073;-72
2021/01/11 09:26:33;;;;;;;23.23;4.47;;;6.70;99.90;;;;;;4839432;29;20037;-72
2021/01/11 09:28:59;;;;;;;28.10;4.72;;;6.70;99.90;;;;;;4838859;29;20548;-72
2021/01/11 09:31:25;;;;;;;20.27;3.90;;;6.70;99.90;;;;;;4838521;29;20034;-72
2021/01/11 09:33:52;;;;;;;15.45;4.15;;;6.70;99.90;;;;;;4822514;29;20053;-72
2021/01/11 09:36:20;;;;;;;27.48;4.72;;;6.70;99.90;;;;;;4838316;29;20033;-72
2021/01/11 09:38:49;;;;;;;21.38;3.70;;;6.60;99.90;;;;;;4837845;29;20076;-72
2021/01/11 09:41:15;;;;;;;23.50;4.63;;;6.70;99.90;;;;;;4838450;29;20051;-72
2021/01/11 09:43:42;;;;;;;27.77;4.28;;;6.70;99.90;;;;;;4838378;29;20395;-71
2021/01/11 09:46:09;;;;;;;19.05;3.78;;;6.70;99.90;;;;;;4838695;29;20044;-72
2021/01/11 09:48:35;;;;;;;20.98;3.90;;;6.80;99.90;;;;;;4821731;29;20030;-72
2021/01/11 09:51:02;;;;;;;24.48;5.35;;;6.70;99.90;;;;;;4838381;29;20040;-71
2021/01/11 09:53:27;;;;;;;23.40;5.00;;;6.70;99.90;;;;;;4838928;29;20155;-72
2021/01/11 09:55:54;;;;;;;32.28;5.07;;;6.70;99.90;;;;;;4837863;29;20094;-72
2021/01/11 09:58:20;;;;;;;27.45;5.15;;;6.70;99.90;;;;;;4838541;29;20034;-72
2021/01/11 10:00:45;;;;;;;28.35;6.00;;;6.70;99.90;;;;;;4838769;29;20040;-71
2021/01/11 10:03:11;;;;;;;32.63;5.22;;;6.70;99.90;;;;;;4838519;29;20041;-72
2021/01/11 10:05:37;;;;;;;20.27;5.25;;;6.70;99.90;;;;;;4838627;29;20034;-72
2021/01/11 10:08:03;;;;;;;19.42;4.40;;;6.70;99.90;;;;;;4837900;29;20121;-71
2021/01/11 10:10:29;;;;;;;23.73;4.75;;;6.80;99.90;;;;;;4838359;29;20058;-72
2021/01/11 10:12:55;;;;;;;22.48;4.55;;;6.80;99.90;;;;;;4838287;29;20108;-72
2021/01/11 10:15:21;;;;;;;32.15;6.88;;;6.90;99.90;;;;;;4837299;29;20113;-71
2021/01/11 10:17:47;;;;;;;27.33;4.47;;;6.80;99.90;;;;;;4838219;29;20034;-72
2021/01/11 10:20:13;;;;;;;22.00;4.00;;;6.80;99.90;;;;;;4838428;29;20083;-72
2021/01/11 10:22:39;;;;;;;25.48;4.63;;;6.80;99.90;;;;;;4837881;29;20030;-72
2021/01/11 10:25:07;;;;;;;22.58;4.93;;;6.80;99.90;;;;;;4838253;29;20022;-72
2021/01/11 10:27:34;;;;;;;29.63;4.57;;;6.80;99.90;;;;;;4838069;29;20521;-72
2021/01/11 10:30:00;;;;;;;24.92;4.15;;;6.90;99.90;;;;;;4838053;29;20038;-71
2021/01/11 10:32:26;;;;;;;20.95;4.57;;;6.90;99.90;;;;;;4837534;29;20058;-73
2021/01/11 10:34:51;;;;;;;25.75;5.53;;;6.90;99.90;;;;;;4838639;29;20065;-71
2021/01/11 10:37:17;;;;;;;27.75;5.05;;;6.90;99.90;;;;;;4837969;29;20482;-72
2021/01/11 10:39:43;;;;;;;27.00;4.35;;;6.90;99.90;;;;;;4837935;29;20117;-72
2021/01/11 10:42:09;;;;;;;22.30;4.60;;;6.90;99.90;;;;;;4821676;29;20026;-71
2021/01/11 10:44:35;;;;;;;24.95;5.00;;;6.90;99.90;;;;;;4838587;29;20517;-72
2021/01/11 10:47:01;;;;;;;17.75;3.40;;;6.90;99.90;;;;;;4838641;29;20048;-71
2021/01/11 10:49:28;;;;;;;17.90;4.25;;;7.00;99.90;;;;;;4837826;29;20510;-71
2021/01/11 10:51:57;;;;;;;16.92;3.72;;;7.00;99.90;;;;;;4838180;29;20655;-71
2021/01/11 10:54:26;;;;;;;15.85;3.83;;;6.90;99.90;;;;;;4837181;29;20041;-71
2021/01/11 10:56:53;;;;;;;20.00;3.20;;;7.00;99.90;;;;;;4838183;29;20037;-72
2021/01/11 10:59:19;;;;;;;19.98;3.75;;;6.90;99.90;;;;;;4835864;29;20409;-71
2021/01/11 11:01:49;;;;;;;16.83;3.72;;;6.80;99.90;;;;;;4837595;29;20052;-72
2021/01/11 11:04:15;;;;;;;19.35;3.78;;;6.80;99.90;;;;;;4837778;29;20129;-71
2021/01/11 11:06:41;;;;;;;20.20;4.50;;;6.80;99.90;;;;;;4835855;29;20036;-72
2021/01/11 11:09:07;;;;;;;19.35;4.00;;;6.70;99.90;;;;;;4837584;29;20089;-72
2021/01/11 11:11:33;;;;;;;25.48;4.55;;;6.80;99.90;;;;;;4838003;29;20029;-72
2021/01/11 11:13:59;;;;;;;16.15;3.15;;;6.80;99.90;;;;;;4838101;29;20045;-72
2021/01/11 11:16:25;;;;;;;25.05;4.22;;;6.70;99.90;;;;;;4837640;29;20041;-72
2021/01/11 11:18:51;;;;;;;22.15;3.88;;;6.70;99.90;;;;;;4837693;29;20033;-72
2021/01/11 11:21:17;;;;;;;21.40;4.07;;;6.80;99.90;;;;;;4840796;29;20049;-72
2021/01/11 11:23:43;;;;;;;12.10;2.85;;;6.80;99.90;;;;;;4841476;29;20109;-72
2021/01/11 11:26:10;;;;;;;16.17;3.83;;;6.80;99.90;;;;;;4841016;29;20057;-72
2021/01/11 11:28:37;;;;;;;19.23;3.60;;;6.80;99.90;;;;;;4841135;29;20272;-72
2021/01/11 11:31:05;;;;;;;14.25;3.15;;;6.80;99.90;;;;;;4840905;29;20526;-72
2021/01/11 11:33:31;;;;;;;19.48;3.60;;;6.80;99.90;;;;;;4840493;29;20058;-72
2021/01/11 11:35:57;;;;;;;14.30;3.33;;;6.80;99.90;;;;;;4824293;29;20052;-72
2021/01/11 11:38:23;;;;;;;15.82;3.25;;;6.90;99.90;;;;;;4839976;29;20434;-72
2021/01/11 11:40:51;;;;;;;13.00;3.28;;;6.80;99.90;;;;;;4841183;29;20029;-72
2021/01/11 11:43:17;;;;;;;16.80;3.40;;;6.80;99.90;;;;;;4840768;29;20397;-72
2021/01/11 11:45:43;;;;;;;12.80;3.00;;;6.80;99.90;;;;;;4840486;29;20029;-72
2021/01/11 11:48:14;;;;;;;18.98;3.78;;;6.80;99.90;;;;;;4840130;29;20401;-72
2021/01/11 11:50:41;;;;;;;21.23;4.43;;;6.80;99.90;;;;;;4840720;29;20040;-72
2021/01/11 11:53:06;;;;;;;21.05;4.95;;;6.80;99.90;;;;;;4839847;29;20041;-73
2021/01/11 11:55:33;;;;;;;24.83;5.10;;;6.80;99.90;;;;;;4808608;29;20489;-72
2021/01/11 11:57:59;;;;;;;25.55;5.30;;;6.80;99.90;;;;;;4840721;29;20033;-72
2021/01/11 12:00:25;;;;;;;13.90;3.47;;;6.80;99.90;;;;;;4839986;29;20034;-72
2021/01/11 12:02:50;;;;;;;15.60;3.72;;;6.80;99.90;;;;;;4823238;29;20025;-73
2021/01/11 12:05:18;;;;;;;11.75;3.60;;;6.80;99.90;;;;;;4823535;29;20583;-72
2021/01/11 12:07:48;;;;;;;19.45;3.60;;;6.80;99.90;;;;;;4840377;29;20040;-72
2021/01/11 12:10:15;;;;;;;18.63;4.55;;;6.70;99.90;;;;;;4839812;29;20094;-72
2021/01/11 12:12:44;;;;;;;17.90;4.93;;;6.70;99.90;;;;;;4840287;29;20030;-72
2021/01/11 12:15:11;;;;;;;25.57;5.17;;;6.70;99.90;;;;;;4840397;29;20077;-72
2021/01/11 12:17:38;;;;;;;26.50;5.43;;;6.70;99.90;;;;;;4839997;29;20429;-72
2021/01/11 12:20:05;;;;;;;26.20;4.88;;;6.80;99.90;;;;;;4839712;29;20040;-72
2021/01/11 12:22:31;;;;;;;22.77;4.18;;;6.80;99.90;;;;;;4838971;29;20025;-73
2021/01/11 12:24:57;;;;;;;20.02;4.45;;;6.90;99.90;;;;;;4840647;29;20033;-72
2021/01/11 12:27:22;;;;;;;14.23;4.00;;;6.80;99.90;;;;;;4839620;29;20508;-72
2021/01/11 12:29:48;;;;;;;25.95;4.10;;;6.90;99.90;;;;;;4822433;29;20107;-72
2021/01/11 12:32:14;;;;;;;19.00;4.40;;;6.90;99.90;;;;;;4839888;29;20053;-72
2021/01/11 12:34:42;;;;;;;19.42;3.47;;;6.80;99.90;;;;;;4839849;29;20600;-73
2021/01/11 12:37:17;;;;;;;24.05;4.22;;;6.80;99.90;;;;;;4839320;29;20030;-72
2021/01/11 12:39:44;;;;;;;18.65;3.53;;;6.80;99.90;;;;;;4839605;29;20045;-71
2021/01/11 12:42:11;;;;;;;14.75;3.63;;;6.80;99.90;;;;;;4839946;29;20053;-72
2021/01/11 12:44:38;;;;;;;10.25;2.53;;;6.80;99.90;;;;;;4840184;29;20042;-72
2021/01/11 12:47:09;;;;;;;13.82;3.20;;;6.80;99.90;;;;;;4822719;29;20029;-72
2021/01/11 12:49:39;;;;;;;18.48;4.03;;;6.80;99.90;;;;;;4839370;29;20170;-72
2021/01/11 12:52:10;;;;;;;14.18;2.60;;;6.80;99.90;;;;;;4822333;29;20039;-71
2021/01/11 12:54:36;;;;;;;13.43;3.65;;;6.80;99.90;;;;;;4839638;29;20097;-73
2021/01/11 12:57:02;;;;;;;8.80;2.40;;;6.70;99.90;;;;;;4840792;29;20867;-72